Time;durP1;ratioP1;P1;durP2;ratioP2;P2;SDS_P1;SDS_P2;PMS_P1;PMS_P2;Temp;Humidity;BMP_temperature;BMP_pressure;BME280_temperature;BME280_humidity;BME280_pressure;Samples;Min_cycle;Max_cycle;Signal;HPM_P1;HPM_P2
2021/01/10 00:03:32;;;;;;;;;;;2.70;99.90;;;;;;10411164;28;20019;-64
2021/01/10 00:08:33;;;;;;;;;;;2.70;99.90;;;;;;10411681;28;19960;-64
2021/01/10 00:13:35;;;;;;;;;;;2.50;99.90;;;;;;10411176;28;19982;-64
2021/01/10 00:18:36;;;;;;;;;;;2.60;99.90;;;;;;10426110;28;19932;-64
2021/01/10 00:23:37;;;;;;;;;;;2.60;99.90;;;;;;10410613;28;19968;-64
2021/01/10 00:28:39;;;;;;;;;;;2.60;99.90;;;;;;10409591;28;19972;-64
2021/01/10 00:33:40;;;;;;;;;;;2.50;99.90;;;;;;10410481;28;19997;-64
2021/01/10 00:38:41;;;;;;;;;;;2.40;99.90;;;;;;10410184;28;20026;-64
2021/01/10 00:43:43;;;;;;;;;;;2.20;99.90;;;;;;10409526;28;20389;-64
2021/01/10 00:48:44;;;;;;;;;;;2.10;99.90;;;;;;10410265;28;19968;-64
2021/01/10 00:53:45;;;;;;;;;;;2.10;99.90;;;;;;10409852;28;19979;-64
2021/01/10 00:58:46;;;;;;;;;;;2.10;99.90;;;;;;10409388;28;20012;-64
2021/01/10 01:03:49;;;;;;;;;;;2.20;99.90;;;;;;10407727;28;20004;-65
2021/01/10 01:08:50;;;;;;;;;;;2.30;99.90;;;;;;10409074;28;19925;-64
2021/01/10 01:13:51;;;;;;;;;;;2.30;99.90;;;;;;10408914;28;19971;-64
2021/01/10 01:18:53;;;;;;;;;;;2.30;99.90;;;;;;10366926;28;19929;-64
2021/01/10 01:23:54;;;;;;;;;;;2.30;99.90;;;;;;10409043;28;19937;-64
2021/01/10 01:28:55;;;;;;;;;;;2.20;99.90;;;;;;10408198;28;19952;-64
2021/01/10 01:33:57;;;;;;;;;;;2.20;99.90;;;;;;10408178;28;19956;-65
2021/01/10 01:38:59;;;;;;;;;;;2.20;99.90;;;;;;10408360;28;19975;-64
2021/01/10 01:44:00;;;;;;;;;;;2.10;99.90;;;;;;10407266;28;20023;-64
2021/01/10 01:49:03;;;;;;;;;;;2.10;99.90;;;;;;10407885;28;19979;-64
2021/01/10 01:54:05;;;;;;;;;;;2.00;99.90;;;;;;10407470;28;19968;-64
2021/01/10 01:59:10;;;;;;;;;;;1.90;99.90;;;;;;10406685;28;20347;-64
2021/01/10 02:04:18;;;;;;;;;;;1.90;99.90;;;;;;10406861;28;19952;-64
2021/01/10 02:09:20;;;;;;;;;;;1.70;99.90;;;;;;10406183;28;20363;-64
2021/01/10 02:14:23;;;;;;;;;;;1.60;99.90;;;;;;10406367;28;19971;-64
2021/01/10 02:19:28;;;;;;;;;;;1.70;99.90;;;;;;10421681;28;19936;-64
2021/01/10 02:24:29;;;;;;;;;;;1.50;99.90;;;;;;10406797;28;19980;-65
2021/01/10 02:29:32;;;;;;;;;;;1.40;99.90;;;;;;10405834;28;19976;-64
2021/01/10 02:34:34;;;;;;;;;;;1.50;99.90;;;;;;10406074;28;20003;-64
2021/01/10 02:39:59;;;;;;;;;;;1.60;99.90;;;;;;10405511;28;19929;-64
2021/01/10 02:45:12;;;;;;;;;;;1.60;99.90;;;;;;10402189;28;19972;-64
2021/01/10 02:50:17;;;;;;;;;;;1.70;99.90;;;;;;10404554;28;19979;-65
2021/01/10 02:55:18;;;;;;;;;;;1.60;99.90;;;;;;10405601;28;19932;-64
2021/01/10 03:00:21;;;;;;;;;;;1.70;99.90;;;;;;10403702;28;20437;-64
2021/01/10 03:05:25;;;;;;;;;;;1.70;99.90;;;;;;10411158;28;20412;-65
2021/01/10 03:10:27;;;;;;;;;;;1.70;99.90;;;;;;10442648;28;19971;-64
2021/01/10 03:15:29;;;;;;;;;;;1.80;99.90;;;;;;10411473;28;19960;-64
2021/01/10 03:20:30;;;;;;;;;;;1.80;99.90;;;;;;10418956;28;19926;-64
2021/01/10 03:25:31;;;;;;;;;;;1.80;99.90;;;;;;10412553;28;19972;-64
2021/01/10 03:30:33;;;;;;;;;;;1.90;99.90;;;;;;10419979;28;19956;-64
2021/01/10 03:35:36;;;;;;;;;;;1.90;99.90;;;;;;10420798;28;19987;-64
2021/01/10 03:40:37;;;;;;;;;;;1.80;99.90;;;;;;10420098;28;20016;-64
2021/01/10 03:45:38;;;;;;;;;;;1.90;99.90;;;;;;10419587;28;19987;-64
2021/01/10 03:50:40;;;;;;;;;;;1.90;99.90;;;;;;10435043;28;19971;-64
2021/01/10 03:55:41;;;;;;;;;;;1.80;99.90;;;;;;10419750;28;19971;-64
2021/01/10 04:00:42;;;;;;;;;;;1.70;99.90;;;;;;10418906;28;19926;-64
2021/01/10 04:05:44;;;;;;;;;;;1.70;99.90;;;;;;10413794;28;20361;-64
2021/01/10 04:10:45;;;;;;;;;;;1.60;99.90;;;;;;10413599;28;19964;-64
2021/01/10 04:15:46;;;;;;;;;;;1.70;99.90;;;;;;10410444;28;19952;-64
2021/01/10 04:20:47;;;;;;;;;;;1.70;99.90;;;;;;10411669;28;19979;-64
2021/01/10 04:25:49;;;;;;;;;;;1.60;99.90;;;;;;10410094;28;19929;-64
2021/01/10 04:30:50;;;;;;;;;;;1.60;99.90;;;;;;10410974;28;20007;-64
2021/01/10 04:35:52;;;;;;;;;;;1.60;99.90;;;;;;10409750;28;19960;-64
2021/01/10 04:40:54;;;;;;;;;;;1.70;99.90;;;;;;10411142;28;19972;-64
2021/01/10 04:45:55;;;;;;;;;;;1.70;99.90;;;;;;10410743;28;19952;-64
2021/01/10 04:50:57;;;;;;;;;;;1.80;99.90;;;;;;10410540;28;19967;-64
2021/01/10 04:56:00;;;;;;;;;;;1.80;99.90;;;;;;10410345;28;19931;-64
2021/01/10 05:01:02;;;;;;;;;;;1.80;99.90;;;;;;10409474;28;20007;-64
2021/01/10 05:06:06;;;;;;;;;;;1.80;99.90;;;;;;10409519;28;19984;-64
2021/01/10 05:11:07;;;;;;;;;;;1.70;99.90;;;;;;10409846;28;20019;-64
2021/01/10 05:16:09;;;;;;;;;;;1.80;99.90;;;;;;10408939;28;19964;-64
2021/01/10 05:21:10;;;;;;;;;;;1.80;99.90;;;;;;10409678;28;19932;-64
2021/01/10 05:26:12;;;;;;;;;;;1.80;99.90;;;;;;10408823;28;19972;-64
2021/01/10 05:31:30;;;;;;;;;;;1.80;99.90;;;;;;10407235;28;20018;-64
2021/01/10 05:36:33;;;;;;;;;;;1.80;99.90;;;;;;10408903;28;19925;-64
2021/01/10 05:41:35;;;;;;;;;;;1.80;99.90;;;;;;10408171;28;19982;-64
2021/01/10 05:46:36;;;;;;;;;;;1.70;99.90;;;;;;10407786;28;20340;-64
2021/01/10 05:51:38;;;;;;;;;;;1.80;99.90;;;;;;10407754;28;19995;-64
2021/01/10 05:56:39;;;;;;;;;;;1.90;99.90;;;;;;10407851;28;19929;-64
2021/01/10 06:01:52;;;;;;;;;;;1.90;99.90;;;;;;10407067;28;19969;-64
2021/01/10 06:06:53;;;;;;;;;;;2.00;99.90;;;;;;10407234;28;19932;-64
2021/01/10 06:11:55;;;;;;;;;;;1.90;99.90;;;;;;10407290;28;20036;-64
2021/01/10 06:16:57;;;;;;;;;;;2.00;99.90;;;;;;10406183;28;19959;-64
2021/01/10 06:22:00;;;;;;;;;;;2.00;99.90;;;;;;10407171;28;19990;-64
2021/01/10 06:27:03;;;;;;;;;;;2.00;99.90;;;;;;10422036;28;19971;-64
2021/01/10 06:32:08;;;;;;;;;;;1.90;99.90;;;;;;10406112;28;20011;-64
2021/01/10 06:37:10;;;;;;;;;;;1.90;99.90;;;;;;10406376;28;19933;-64
2021/01/10 06:42:14;;;;;;;;;;;1.90;99.90;;;;;;10421230;28;19975;-64
2021/01/10 06:47:19;;;;;;;;;;;2.00;99.90;;;;;;10405358;28;19980;-64
2021/01/10 06:52:23;;;;;;;;;;;2.00;99.90;;;;;;10405846;28;19931;-64
2021/01/10 06:57:29;;;;;;;;;;;2.10;99.90;;;;;;10421355;28;19933;-64
2021/01/10 07:02:53;;;;;;;;;;;1.90;99.90;;;;;;10404401;28;19925;-64
2021/01/10 07:07:54;;;;;;;;;;;1.90;99.90;;;;;;10404881;28;19991;-64
2021/01/10 07:13:15;;;;;;;;;;;2.00;99.90;;;;;;10420375;28;19968;-64
2021/01/10 07:18:17;;;;;;;;;;;2.00;99.90;;;;;;10404855;28;20020;-64
2021/01/10 07:23:29;;;;;;;;;;;2.00;99.90;;;;;;10405138;28;19932;-64
2021/01/10 07:28:35;;;;;;;;;;;2.00;99.90;;;;;;10404913;28;19971;-64
2021/01/10 07:33:36;;;;;;;;;;;1.90;99.90;;;;;;10404428;28;19929;-64
2021/01/10 07:38:39;;;;;;;;;;;1.90;99.90;;;;;;10405236;28;19957;-64
2021/01/10 07:43:50;;;;;;;;;;;1.90;99.90;;;;;;10404227;28;19963;-64
2021/01/10 07:48:52;;;;;;;;;;;1.80;99.90;;;;;;10404696;28;19933;-64
2021/01/10 07:53:53;;;;;;;;;;;1.90;99.90;;;;;;10404710;28;20040;-64
2021/01/10 07:59:24;;;;;;;;;;;1.80;99.90;;;;;;10418951;28;20366;-64
2021/01/10 08:04:33;;;;;;;;;;;2.00;99.90;;;;;;10391246;28;20340;-64
2021/01/10 08:09:34;;;;;;;;;;;2.00;99.90;;;;;;10404210;28;19968;-64
2021/01/10 08:14:36;;;;;;;;;;;2.10;99.90;;;;;;10410868;28;20024;-64
2021/01/10 08:19:39;;;;;;;;;;;2.20;99.90;;;;;;10411545;28;20420;-65
2021/01/10 08:24:40;;;;;;;;;;;2.10;99.90;;;;;;10411575;28;20393;-64
2021/01/10 08:29:42;;;;;;;;;;;2.20;99.90;;;;;;10410399;28;20875;-65
2021/01/10 08:34:47;;;;;;;;;;;2.30;99.90;;;;;;10410840;28;19974;-65
2021/01/10 08:39:58;;;;;;;;;;;2.20;99.90;;;;;;10410937;28;20444;-64
2021/01/10 08:45:15;;;;;;;;;;;2.30;99.90;;;;;;10409917;28;20024;-64
2021/01/10 08:50:17;;;;;;;;;;;2.20;99.90;;;;;;10410311;28;20504;-65
2021/01/10 08:55:29;;;;;;;;;;;2.40;99.90;;;;;;10410190;28;19971;-64
2021/01/10 09:00:31;;;;;;;;;;;2.50;99.90;;;;;;10409635;28;20012;-64
2021/01/10 09:05:33;;;;;;;;;;;2.40;99.90;;;;;;10424993;28;19925;-64
2021/01/10 09:10:37;;;;;;;;;;;2.30;99.90;;;;;;10410352;28;19960;-65
2021/01/10 09:15:39;;;;;;;;;;;2.50;99.90;;;;;;10409177;28;20011;-65
2021/01/10 09:20:48;;;;;;;;;;;2.50;99.90;;;;;;10409724;28;19925;-65
2021/01/10 09:25:50;;;;;;;;;;;2.50;99.90;;;;;;10408474;28;19925;-65
2021/01/10 09:30:54;;;;;;;;;;;2.70;99.90;;;;;;10408662;28;20028;-65
2021/01/10 09:35:57;;;;;;;;;;;2.70;99.90;;;;;;10408980;28;19999;-66
2021/01/10 09:41:06;;;;;;;;;;;2.80;99.90;;;;;;10408358;28;19983;-65
2021/01/10 09:46:24;;;;;;;;;;;3.10;99.90;;;;;;10406129;28;20036;-65
2021/01/10 09:51:34;;;;;;;;;;;3.20;99.90;;;;;;10407879;28;19925;-65
2021/01/10 09:56:38;;;;;;;;;;;3.10;99.90;;;;;;10407597;28;19968;-65
2021/01/10 10:01:39;;;;;;;;;;;3.20;99.90;;;;;;10406943;28;20026;-65
2021/01/10 10:06:50;;;;;;;;;;;3.20;99.90;;;;;;10407633;28;19925;-65
2021/01/10 10:12:05;;;;;;;;;;;3.40;99.90;;;;;;10407350;28;19979;-65
2021/01/10 10:17:10;;;;;;;;;;;3.40;99.90;;;;;;10406742;28;19968;-65
2021/01/10 10:22:23;;;;;;;;;;;3.60;99.90;;;;;;10407387;28;19929;-66
2021/01/10 10:27:26;;;;;;;;;;;3.70;99.90;;;;;;10406893;28;20015;-65
2021/01/10 10:32:27;;;;;;;;;;;3.70;99.90;;;;;;10406821;28;19960;-65
2021/01/10 10:37:29;;;;;;;;;;;3.80;99.90;;;;;;10406275;28;19929;-65
2021/01/10 10:42:32;;;;;;;;;;;3.70;99.90;;;;;;10406613;28;19925;-65
2021/01/10 10:47:33;;;;;;;;;;;3.70;99.90;;;;;;10405124;28;20011;-65
2021/01/10 10:52:34;;;;;;;;;;;4.00;99.90;;;;;;10405929;28;19979;-66
2021/01/10 10:57:36;;;;;;;;;;;4.10;99.90;;;;;;10405748;28;20006;-65
2021/01/10 11:02:37;;;;;;;;;;;4.10;99.90;;;;;;10405282;28;19983;-65
2021/01/10 11:07:38;;;;;;;;;;;3.90;99.90;;;;;;10420917;28;19980;-65
2021/01/10 11:12:40;;;;;;;;;;;4.00;99.90;;;;;;10405510;28;19983;-66
2021/01/10 11:17:41;;;;;;;;;;;4.20;99.90;;;;;;10404391;28;20412;-65
2021/01/10 11:22:43;;;;;;;;;;;4.30;99.90;;;;;;10405061;28;20413;-66
2021/01/10 11:27:44;;;;;;;;;;;4.40;99.90;;;;;;10405048;28;20371;-65
2021/01/10 11:32:46;;;;;;;;;;;4.30;99.90;;;;;;10404720;28;19960;-65
2021/01/10 11:37:49;;;;;;;;;;;4.30;99.90;;;;;;10403480;28;19925;-66
2021/01/10 11:42:50;;;;;;;;;;;4.20;99.90;;;;;;10404938;28;19979;-65
2021/01/10 11:47:52;;;;;;;;;;;4.30;99.90;;;;;;10409004;28;19957;-65
2021/01/10 11:52:53;;;;;;;;;;;4.20;99.90;;;;;;10412391;28;19932;-66
2021/01/10 11:57:54;;;;;;;;;;;4.40;99.90;;;;;;10412488;28;20344;-66
2021/01/10 12:02:56;;;;;;;;;;;4.70;99.90;;;;;;10411933;28;20424;-65
2021/01/10 12:07:57;;;;;;;;;;;4.80;99.90;;;;;;10412154;28;19925;-65
2021/01/10 12:12:58;;;;;;;;;;;4.70;99.90;;;;;;10412178;28;20355;-66
2021/01/10 12:18:00;;;;;;;;;;;4.70;99.90;;;;;;10412258;28;19971;-65
2021/01/10 12:23:03;;;;;;;;;;;4.70;99.90;;;;;;10411535;28;19925;-65
2021/01/10 12:28:04;;;;;;;;;;;4.60;99.90;;;;;;10411520;28;19975;-65
2021/01/10 12:33:06;;;;;;;;;;;4.60;99.90;;;;;;10410418;28;20369;-65
2021/01/10 12:38:07;;;;;;;;;;;4.60;99.90;;;;;;10411518;28;20020;-65
2021/01/10 12:43:12;;;;;;;;;;;4.50;99.90;;;;;;10410845;28;20028;-65
2021/01/10 12:48:14;;;;;;;;;;;4.60;99.90;;;;;;10410577;28;20022;-66
2021/01/10 12:53:16;;;;;;;;;;;4.50;99.90;;;;;;10410398;28;20022;-65
2021/01/10 12:58:19;;;;;;;;;;;4.60;99.90;;;;;;10409166;28;19937;-65
2021/01/10 13:03:20;;;;;;;;;;;4.70;99.90;;;;;;10410015;28;19984;-66
2021/01/10 13:08:21;;;;;;;;;;;4.70;99.90;;;;;;10409800;28;20369;-65
2021/01/10 13:13:23;;;;;;;;;;;4.40;99.90;;;;;;10409446;28;20012;-65
2021/01/10 13:18:24;;;;;;;;;;;4.60;99.90;;;;;;10409272;28;19932;-65
2021/01/10 13:23:25;;;;;;;;;;;4.90;99.90;;;;;;10408543;28;20362;-66
2021/01/10 13:28:27;;;;;;;;;;;5.00;99.90;;;;;;10408760;28;20283;-66
2021/01/10 13:33:28;;;;;;;;;;;5.10;99.90;;;;;;10408816;28;20019;-65
2021/01/10 13:38:30;;;;;;;;;;;4.90;99.90;;;;;;10424298;28;20008;-65
2021/01/10 13:43:31;;;;;;;;;;;4.90;99.90;;;;;;10408522;28;19968;-66
2021/01/10 13:48:32;;;;;;;;;;;5.00;99.90;;;;;;10407654;28;20008;-65
2021/01/10 13:53:33;;;;;;;;;;;4.80;99.90;;;;;;10408250;28;19929;-65
2021/01/10 13:58:35;;;;;;;;;;;4.80;99.90;;;;;;10407622;28;20405;-65
2021/01/10 14:03:36;;;;;;;;;;;5.00;99.90;;;;;;10407320;28;20016;-66
2021/01/10 14:08:38;;;;;;;;;;;4.80;99.90;;;;;;10407685;28;19925;-66
2021/01/10 14:13:40;;;;;;;;;;;5.00;99.90;;;;;;10407246;28;20078;-66
2021/01/10 14:18:41;;;;;;;;;;;5.10;99.90;;;;;;10406337;28;19975;-66
2021/01/10 14:23:42;;;;;;;;;;;5.00;99.90;;;;;;10405433;28;20020;-66
2021/01/10 14:28:44;;;;;;;;;;;5.20;99.90;;;;;;10403609;28;20416;-66
2021/01/10 14:33:45;;;;;;;;;;;5.20;99.90;;;;;;10406265;28;20393;-66
2021/01/10 14:38:46;;;;;;;;;;;5.10;99.90;;;;;;10404462;28;19929;-66
2021/01/10 14:43:48;;;;;;;;;;;5.00;99.90;;;;;;10420368;28;20325;-66
2021/01/10 14:48:50;;;;;;;;;;;4.90;99.90;;;;;;10404862;28;20019;-66
2021/01/10 14:53:54;;;;;;;;;;;4.90;99.90;;;;;;10420844;28;19925;-66
2021/01/10 14:58:55;;;;;;;;;;;4.90;99.90;;;;;;10404887;28;20401;-64
2021/01/10 15:03:58;;;;;;;;;;;4.90;99.90;;;;;;10405168;28;20320;-66
2021/01/10 15:09:00;;;;;;;;;;;4.90;99.90;;;;;;10420208;28;19932;-66
2021/01/10 15:14:02;;;;;;;;;;;4.80;99.90;;;;;;10404270;28;19925;-66
2021/01/10 15:19:03;;;;;;;;;;;4.70;99.90;;;;;;10404443;28;19968;-66
2021/01/10 15:24:05;;;;;;;;;;;4.60;99.90;;;;;;10403845;28;19975;-66
2021/01/10 15:29:06;;;;;;;;;;;4.60;99.90;;;;;;10403476;28;19987;-66
2021/01/10 15:34:07;;;;;;;;;;;4.40;99.90;;;;;;10403301;28;19972;-66
2021/01/10 15:39:08;;;;;;;;;;;4.40;99.90;;;;;;10403211;28;20489;-66
2021/01/10 15:44:10;;;;;;;;;;;4.30;99.90;;;;;;10402249;28;19929;-66
2021/01/10 15:49:11;;;;;;;;;;;4.20;99.90;;;;;;10402915;28;20016;-66
2021/01/10 15:54:13;;;;;;;;;;;4.20;99.90;;;;;;10403478;28;19933;-66
2021/01/10 15:59:14;;;;;;;;;;;4.00;99.90;;;;;;10402401;28;19940;-66
2021/01/10 16:04:16;;;;;;;;;;;3.90;99.90;;;;;;10403683;28;20059;-66
2021/01/10 16:09:17;;;;;;;;;;;3.90;99.90;;;;;;10403172;28;20016;-66
2021/01/10 16:14:18;;;;;;;;;;;3.80;99.90;;;;;;10417304;28;19980;-66
2021/01/10 16:19:21;;;;;;;;;;;3.60;99.90;;;;;;10399932;28;20011;-66
2021/01/10 16:24:22;;;;;;;;;;;3.60;99.90;;;;;;10415559;28;20437;-66
2021/01/10 16:29:24;;;;;;;;;;;3.50;99.90;;;;;;10398829;28;20032;-66
2021/01/10 16:34:48;;;;;;;;;;;3.40;99.90;;;;;;10406229;28;19933;-66
2021/01/10 16:39:50;;;;;;;;;;;3.30;99.90;;;;;;10407180;28;20048;-66
2021/01/10 16:44:52;;;;;;;;;;;3.20;99.90;;;;;;10407221;28;19976;-66
2021/01/10 16:49:54;;;;;;;;;;;3.00;99.90;;;;;;10406771;28;19933;-66
2021/01/10 16:55:03;;;;;;;;;;;2.90;99.90;;;;;;10406643;28;19933;-66
2021/01/10 17:00:05;;;;;;;;;;;2.90;99.90;;;;;;10407248;28;19929;-66
2021/01/10 17:05:07;;;;;;;;;;;2.70;99.90;;;;;;10402332;28;20283;-66
2021/01/10 17:10:13;;;;;;;;;;;2.60;99.90;;;;;;10405891;28;20008;-66
2021/01/10 17:15:17;;;;;;;;;;;2.50;99.90;;;;;;10404559;28;19971;-66
2021/01/10 17:20:18;;;;;;;;;;;2.50;99.90;;;;;;10405264;28;19978;-66
2021/01/10 17:25:19;;;;;;;;;;;2.40;99.90;;;;;;10407927;28;19973;-66
2021/01/10 17:30:21;;;;;;;;;;;2.30;99.90;;;;;;10419363;28;20019;-66
2021/01/10 17:35:22;;;;;;;;;;;2.20;99.90;;;;;;10406493;28;19991;-66
2021/01/10 17:40:23;;;;;;;;;;;2.10;99.90;;;;;;10406836;28;19976;-66
2021/01/10 17:45:25;;;;;;;;;;;2.10;99.90;;;;;;10406640;28;19929;-66
2021/01/10 17:50:26;;;;;;;;;;;2.10;99.90;;;;;;10406853;28;20301;-66
2021/01/10 17:55:28;;;;;;;;;;;2.00;99.90;;;;;;10422474;28;19925;-66
2021/01/10 18:00:29;;;;;;;;;;;2.00;99.90;;;;;;10406095;28;19982;-65
2021/01/10 18:05:30;;;;;;;;;;;2.00;99.90;;;;;;10406903;28;19976;-65
2021/01/10 18:10:32;;;;;;;;;;;2.00;99.90;;;;;;10406732;28;19925;-66
2021/01/10 18:15:33;;;;;;;;;;;1.90;99.90;;;;;;10405481;28;19979;-66
2021/01/10 18:20:36;;;;;;;;;;;1.80;99.90;;;;;;10404358;28;20449;-66
2021/01/10 18:25:38;;;;;;;;;;;1.80;99.90;;;;;;10405133;28;20392;-65
2021/01/10 18:30:40;;;;;;;;;;;1.70;99.90;;;;;;10405071;28;19956;-65
2021/01/10 18:35:42;;;;;;;;;;;1.60;99.90;;;;;;10404840;28;19933;-65
2021/01/10 18:40:43;;;;;;;;;;;1.50;99.90;;;;;;10404069;28;20275;-66
2021/01/10 18:45:44;;;;;;;;;;;1.50;99.90;;;;;;10402222;28;20008;-65
2021/01/10 18:50:46;;;;;;;;;;;1.60;99.90;;;;;;10403820;28;19972;-66
2021/01/10 18:56:00;;;;;;;;;;;1.50;99.90;;;;;;10403256;28;19925;-66
2021/01/10 19:01:04;;;;;;;;;;;1.50;99.90;;;;;;10401378;28;19925;-66
2021/01/10 19:06:05;;;;;;;;;;;1.50;99.90;;;;;;10404074;28;19987;-66
2021/01/10 19:11:09;;;;;;;;;;;1.50;99.90;;;;;;10411718;28;20041;-66
2021/01/10 19:16:10;;;;;;;;;;;1.50;99.90;;;;;;10401399;28;20373;-65
2021/01/10 19:21:13;;;;;;;;;;;1.40;99.90;;;;;;10403727;28;20258;-65
2021/01/10 19:26:23;;;;;;;;;;;1.40;99.90;;;;;;10418646;28;19929;-65
2021/01/10 19:31:25;;;;;;;;;;;1.40;99.90;;;;;;10402934;28;20422;-65
2021/01/10 19:36:28;;;;;;;;;;;1.40;99.90;;;;;;10414013;28;19933;-65
2021/01/10 19:41:29;;;;;;;;;;;1.30;99.90;;;;;;10403179;28;20008;-65
2021/01/10 19:46:31;;;;;;;;;;;1.20;99.90;;;;;;10402619;28;19929;-65
2021/01/10 19:51:33;;;;;;;;;;;1.20;99.90;;;;;;10402945;28;19925;-65
2021/01/10 19:56:35;;;;;;;;;;;1.20;99.90;;;;;;10403866;28;19931;-65
2021/01/10 20:01:37;;;;;;;;;;;1.20;99.90;;;;;;10402166;28;19988;-65
2021/01/10 20:06:40;;;;;;;;;;;1.10;99.90;;;;;;10404240;28;20297;-65
2021/01/10 20:11:43;;;;;;;;;;;1.00;99.90;;;;;;10410251;28;19925;-65
2021/01/10 20:16:45;;;;;;;;;;;0.90;99.90;;;;;;10410093;28;19939;-65
2021/01/10 20:21:46;;;;;;;;;;;0.90;99.90;;;;;;10409998;28;20395;-65
2021/01/10 20:26:47;;;;;;;;;;;0.90;99.90;;;;;;10409430;28;19968;-65
2021/01/10 20:31:49;;;;;;;;;;;0.80;99.90;;;;;;10409799;28;20307;-65
2021/01/10 20:36:52;;;;;;;;;;;0.80;99.90;;;;;;10407543;28;20425;-65
2021/01/10 20:41:53;;;;;;;;;;;0.80;99.90;;;;;;10408459;28;20020;-65
2021/01/10 20:47:03;;;;;;;;;;;0.80;99.90;;;;;;10407795;28;19977;-65
2021/01/10 20:52:05;;;;;;;;;;;0.70;99.90;;;;;;10407987;28;19925;-65
2021/01/10 20:57:06;;;;;;;;;;;0.70;99.90;;;;;;10409401;28;19933;-65
2021/01/10 21:02:08;;;;;;;;;;;0.70;99.90;;;;;;10407917;28;19972;-65
2021/01/10 21:07:09;;;;;;;;;;;0.70;99.90;;;;;;10407973;28;20377;-65
2021/01/10 21:12:10;;;;;;;;;;;0.70;99.90;;;;;;10408777;28;20013;-65
2021/01/10 21:17:12;;;;;;;;;;;0.60;99.90;;;;;;10407978;28;20404;-65
2021/01/10 21:22:34;;;;;;;;;;;0.60;99.90;;;;;;10408524;28;19925;-65
2021/01/10 21:27:36;;;;;;;;;;;0.50;99.90;;;;;;10407711;28;19929;-65
2021/01/10 21:32:37;;;;;;;;;;;0.60;99.90;;;;;;10407311;28;19925;-65
2021/01/10 21:37:39;;;;;;;;;;;0.50;99.90;;;;;;10407551;28;19948;-65
2021/01/10 21:42:41;;;;;;;;;;;0.40;99.90;;;;;;10407670;28;20322;-65
2021/01/10 21:47:43;;;;;;;;;;;0.40;99.90;;;;;;10406258;28;19925;-65
2021/01/10 21:52:44;;;;;;;;;;;0.30;99.90;;;;;;10406309;28;19925;-65
2021/01/10 21:57:45;;;;;;;;;;;0.40;99.90;;;;;;10406256;28;19972;-65
2021/01/10 22:02:47;;;;;;;;;;;0.30;99.90;;;;;;10406163;28;19956;-65
2021/01/10 22:07:49;;;;;;;;;;;0.30;99.90;;;;;;10405274;28;20443;-65
2021/01/10 22:12:50;;;;;;;;;;;0.20;99.90;;;;;;10406014;28;20733;-65
2021/01/10 22:17:51;;;;;;;;;;;0.20;99.90;;;;;;10405234;28;20219;-65
2021/01/10 22:22:53;;;;;;;;;;;0.20;99.90;;;;;;10405724;28;20004;-65
2021/01/10 22:27:54;;;;;;;;;;;0.20;99.90;;;;;;10404825;28;19929;-65
2021/01/10 22:32:55;;;;;;;;;;;0.20;99.90;;;;;;10404701;28;19936;-65
2021/01/10 22:37:57;;;;;;;;;;;0.10;99.90;;;;;;10404929;28;20023;-65
2021/01/10 22:42:58;;;;;;;;;;;0.10;99.90;;;;;;10405180;28;19932;-65
2021/01/10 22:48:00;;;;;;;;;;;0.00;99.90;;;;;;10403714;28;20118;-65
2021/01/10 22:53:01;;;;;;;;;;;0.00;99.90;;;;;;10404459;28;19935;-65
2021/01/10 22:58:03;;;;;;;;;;;0.00;99.90;;;;;;10403676;28;19964;-65
2021/01/10 23:03:04;;;;;;;;;;;-0.10;99.90;;;;;;10403887;28;20015;-65
2021/01/10 23:08:05;;;;;;;;;;;-0.10;99.90;;;;;;10403443;28;19968;-65
2021/01/10 23:13:06;;;;;;;;;;;-0.10;99.90;;;;;;10402982;28;19964;-65
2021/01/10 23:18:08;;;;;;;;;;;-0.10;99.90;;;;;;10404151;28;19960;-65
2021/01/10 23:23:09;;;;;;;;;;;-0.20;99.90;;;;;;10403194;28;19931;-65
2021/01/10 23:28:10;;;;;;;;;;;-0.30;99.90;;;;;;10403273;28;20124;-65
2021/01/10 23:33:12;;;;;;;;;;;-0.20;99.90;;;;;;10402808;28;19960;-65
2021/01/10 23:38:14;;;;;;;;;;;-0.30;99.90;;;;;;10402439;28;19929;-65
2021/01/10 23:43:15;;;;;;;;;;;-0.30;99.90;;;;;;10406854;28;19933;-65
2021/01/10 23:48:16;;;;;;;;;;;-0.30;99.90;;;;;;10411539;28;19932;-65
2021/01/10 23:53:18;;;;;;;;;;;-0.20;99.90;;;;;;10426912;28;19925;-65
2021/01/10 23:58:19;;;;;;;;;;;-0.30;99.90;;;;;;10410646;28;19956;-65
